Time;durP1;ratioP1;P1;durP2;ratioP2;P2;SDS_P1;SDS_P2;PMS_P1;PMS_P2;Temp;Humidity;BMP_temperature;BMP_pressure;BME280_temperature;BME280_humidity;BME280_pressure;Samples;Min_cycle;Max_cycle;Signal;HPM_P1;HPM_P2
2023/10/19 00:02:05;;;;;;;;;;;8.20;99.90;;;;;;4861499;29;19928;-86
2023/10/19 00:04:32;;;;;;;;;;;8.20;99.90;;;;;;4864106;29;19928;-85
2023/10/19 00:06:58;;;;;;;;;;;8.30;99.90;;;;;;4865177;29;20287;-83
2023/10/19 00:09:25;;;;;;;;;;;8.20;99.90;;;;;;4863574;29;19928;-84
2023/10/19 00:11:51;;;;;;;;;;;8.30;99.90;;;;;;4864981;29;19979;-83
2023/10/19 00:14:18;;;;;;;;;;;8.30;99.90;;;;;;4864048;29;20300;-84
2023/10/19 00:16:52;;;;;;;;;;;8.30;99.90;;;;;;4865199;29;19928;-83
2023/10/19 00:19:21;;;;;;;;;;;8.30;99.90;;;;;;4865833;29;19935;-84
2023/10/19 00:21:50;;;;;;;;;;;8.30;99.90;;;;;;4864652;29;20000;-85
2023/10/19 00:24:17;;;;;;;;;;;8.30;99.90;;;;;;4863940;29;19928;-83
2023/10/19 00:26:48;;;;;;;;;;;8.30;99.90;;;;;;4864811;29;19928;-84
2023/10/19 00:29:40;;;;;;;;;;;8.30;99.90;;;;;;4864908;29;19954;-84
2023/10/19 00:32:06;;;;;;;;;;;8.30;99.90;;;;;;4863919;29;19928;-83
2023/10/19 00:34:33;;;;;;;;;;;8.30;99.90;;;;;;4863589;29;19928;-83
2023/10/19 00:37:07;;;;;;;;;;;8.30;99.90;;;;;;4863417;29;20027;-87
2023/10/19 00:39:50;;;;;;;;;;;8.30;99.90;;;;;;4864398;29;19984;-83
2023/10/19 00:42:20;;;;;;;;;;;8.30;99.90;;;;;;4865114;29;19985;-85
2023/10/19 00:44:50;;;;;;;;;;;8.30;99.90;;;;;;4864837;29;19935;-86
2023/10/19 00:47:18;;;;;;;;;;;8.30;99.90;;;;;;4863076;29;19935;-85
2023/10/19 00:49:48;;;;;;;;;;;8.30;99.90;;;;;;4864382;29;19928;-83
2023/10/19 00:52:19;;;;;;;;;;;8.30;99.90;;;;;;4864526;29;20372;-85
2023/10/19 00:57:12;;;;;;;;;;;8.30;99.90;;;;;;4864074;29;19928;-85
2023/10/19 01:04:56;;;;;;;;;;;8.30;99.90;;;;;;4866330;29;19928;-85
2023/10/19 01:07:29;;;;;;;;;;;8.30;99.90;;;;;;4866421;29;19928;-84
2023/10/19 01:09:56;;;;;;;;;;;8.30;99.90;;;;;;4864132;29;20383;-84
2023/10/19 01:12:25;;;;;;;;;;;8.30;99.90;;;;;;4863671;29;20381;-85
2023/10/19 01:15:29;;;;;;;;;;;8.30;99.90;;;;;;4863310;29;19993;-86
2023/10/19 01:17:58;;;;;;;;;;;8.30;99.90;;;;;;4852712;29;19994;-86
2023/10/19 01:25:36;;;;;;;;;;;8.30;99.90;;;;;;4863854;29;19934;-86
2023/10/19 01:28:08;;;;;;;;;;;8.30;99.90;;;;;;4864442;29;19929;-85
2023/10/19 01:30:36;;;;;;;;;;;8.40;99.90;;;;;;4862501;29;20451;-87
2023/10/19 01:33:02;;;;;;;;;;;8.30;99.90;;;;;;4864317;29;19928;-85
2023/10/19 01:36:10;;;;;;;;;;;8.40;99.90;;;;;;4862463;29;19976;-86
2023/10/19 01:38:14;;;;;;;;;;;8.40;99.90;;;;;;4863283;29;20371;-87
2023/10/19 01:40:46;;;;;;;;;;;8.40;99.90;;;;;;4862542;29;20018;-86
2023/10/19 01:43:21;;;;;;;;;;;8.40;99.90;;;;;;4863672;29;20028;-85
2023/10/19 01:45:47;;;;;;;;;;;8.40;99.90;;;;;;4863549;29;19932;-86
2023/10/19 01:48:13;;;;;;;;;;;8.40;99.90;;;;;;4862075;29;20308;-87
2023/10/19 01:50:39;;;;;;;;;;;8.40;99.90;;;;;;4863684;29;19928;-87
2023/10/19 01:53:13;;;;;;;;;;;8.40;99.90;;;;;;4864066;29;20320;-87
2023/10/19 01:55:42;;;;;;;;;;;8.40;99.90;;;;;;4863343;29;19935;-89
2023/10/19 01:58:08;;;;;;;;;;;8.50;99.90;;;;;;4863118;29;19928;-88
2023/10/19 02:00:37;;;;;;;;;;;8.50;99.90;;;;;;4863111;29;20257;-86
2023/10/19 02:03:08;;;;;;;;;;;8.50;99.90;;;;;;4847789;29;19954;-86
2023/10/19 02:05:43;;;;;;;;;;;8.50;99.90;;;;;;4863390;29;20018;-86
2023/10/19 02:08:08;;;;;;;;;;;8.50;99.90;;;;;;4863214;29;20448;-87
2023/10/19 02:10:35;;;;;;;;;;;8.50;99.90;;;;;;4861977;29;19928;-86
2023/10/19 02:13:06;;;;;;;;;;;8.50;99.90;;;;;;4862068;29;20018;-86
2023/10/19 02:15:35;;;;;;;;;;;8.50;99.90;;;;;;4862447;29;19928;-85
2023/10/19 02:18:02;;;;;;;;;;;8.50;99.90;;;;;;4863244;29;19928;-86
2023/10/19 02:20:28;;;;;;;;;;;8.50;99.90;;;;;;4862861;29;20377;-84
2023/10/19 02:22:57;;;;;;;;;;;8.50;99.90;;;;;;4862923;29;19976;-87
2023/10/19 02:25:28;;;;;;;;;;;8.60;99.90;;;;;;4862790;29;19928;-86
2023/10/19 02:27:53;;;;;;;;;;;8.60;99.90;;;;;;4863299;29;20039;-85
2023/10/19 02:30:19;;;;;;;;;;;8.60;99.90;;;;;;4861783;29;19967;-85
2023/10/19 02:32:47;;;;;;;;;;;8.60;99.90;;;;;;4862206;29;20026;-84
2023/10/19 02:35:14;;;;;;;;;;;8.60;99.90;;;;;;4863698;29;19954;-86
2023/10/19 02:37:39;;;;;;;;;;;8.70;99.90;;;;;;4861933;29;19928;-84
2023/10/19 02:40:15;;;;;;;;;;;8.60;99.90;;;;;;4862416;29;19980;-89
2023/10/19 02:42:40;;;;;;;;;;;8.60;99.90;;;;;;4862666;29;19935;-85
2023/10/19 02:45:07;;;;;;;;;;;8.60;99.90;;;;;;4862698;29;19928;-86
2023/10/19 02:47:33;;;;;;;;;;;8.60;99.90;;;;;;4863002;29;19932;-86
2023/10/19 02:49:58;;;;;;;;;;;8.70;99.90;;;;;;4862844;29;19935;-86
2023/10/19 02:52:24;;;;;;;;;;;8.70;99.90;;;;;;4861536;29;20015;-86
2023/10/19 02:54:49;;;;;;;;;;;8.70;99.90;;;;;;4861221;29;20347;-86
2023/10/19 02:57:15;;;;;;;;;;;8.70;99.90;;;;;;4861076;29;19928;-86
2023/10/19 02:59:41;;;;;;;;;;;8.70;99.90;;;;;;4862233;29;19928;-86
2023/10/19 03:04:35;;;;;;;;;;;8.70;99.90;;;;;;4862406;29;20387;-86
2023/10/19 03:07:02;;;;;;;;;;;8.80;99.90;;;;;;4861329;29;19934;-86
2023/10/19 03:11:59;;;;;;;;;;;8.80;99.90;;;;;;4846100;29;20046;-85
2023/10/19 03:14:25;;;;;;;;;;;8.80;99.90;;;;;;4862853;29;20432;-85
2023/10/19 03:16:51;;;;;;;;;;;8.90;99.90;;;;;;4861757;29;20245;-87
2023/10/19 03:19:17;;;;;;;;;;;8.90;99.90;;;;;;4861953;29;19935;-85
2023/10/19 03:21:42;;;;;;;;;;;8.90;99.90;;;;;;4861828;29;19932;-85
2023/10/19 03:26:54;;;;;;;;;;;8.90;99.90;;;;;;4862459;29;19932;-86
2023/10/19 03:29:31;;;;;;;;;;;8.90;99.90;;;;;;4862410;29;19928;-85
2023/10/19 03:31:56;;;;;;;;;;;8.90;99.90;;;;;;4862086;29;19928;-85
2023/10/19 03:34:23;;;;;;;;;;;9.00;99.90;;;;;;4861646;29;20398;-85
2023/10/19 03:36:50;;;;;;;;;;;9.00;99.90;;;;;;4860639;29;19935;-85
2023/10/19 03:39:17;;;;;;;;;;;9.00;99.90;;;;;;4861738;29;20000;-86
2023/10/19 03:41:44;;;;;;;;;;;9.00;99.90;;;;;;4861920;29;19932;-86
2023/10/19 03:44:13;;;;;;;;;;;9.00;99.90;;;;;;4861724;29;19928;-87
2023/10/19 03:46:52;;;;;;;;;;;9.00;99.90;;;;;;4846215;29;19982;-86
2023/10/19 03:49:20;;;;;;;;;;;9.00;99.90;;;;;;4862515;29;20368;-87
2023/10/19 03:51:59;;;;;;;;;;;9.00;99.90;;;;;;4862405;29;20275;-86
2023/10/19 03:54:26;;;;;;;;;;;9.10;99.90;;;;;;4862259;29;19928;-86
2023/10/19 03:56:53;;;;;;;;;;;9.10;99.90;;;;;;4860749;29;20425;-86
2023/10/19 03:59:20;;;;;;;;;;;9.10;99.90;;;;;;4861896;29;20022;-86
2023/10/19 04:01:45;;;;;;;;;;;9.10;99.90;;;;;;4862093;29;19978;-86
2023/10/19 04:04:11;;;;;;;;;;;9.10;99.90;;;;;;4861288;29;19963;-85
2023/10/19 04:06:37;;;;;;;;;;;9.10;99.90;;;;;;4862306;29;19956;-86
2023/10/19 04:09:05;;;;;;;;;;;9.20;99.90;;;;;;4861465;29;20391;-85
2023/10/19 04:11:47;;;;;;;;;;;9.20;99.90;;;;;;4859803;29;19929;-86
2023/10/19 04:14:15;;;;;;;;;;;9.20;99.90;;;;;;4861988;29;19940;-85
2023/10/19 04:16:43;;;;;;;;;;;9.20;99.90;;;;;;4860834;29;19963;-85
2023/10/19 04:19:10;;;;;;;;;;;9.20;99.90;;;;;;4861439;29;19928;-86
2023/10/19 04:21:38;;;;;;;;;;;9.30;99.90;;;;;;4860465;29;19928;-86
2023/10/19 04:24:07;;;;;;;;;;;9.20;99.90;;;;;;4860238;29;19935;-86
2023/10/19 04:26:37;;;;;;;;;;;9.30;99.90;;;;;;4861138;29;20332;-86
2023/10/19 04:29:10;;;;;;;;;;;9.30;99.90;;;;;;4860884;29;19983;-86
2023/10/19 04:31:49;;;;;;;;;;;9.30;99.90;;;;;;4845165;29;19928;-86
2023/10/19 04:34:14;;;;;;;;;;;9.40;99.90;;;;;;4860600;29;19935;-86
2023/10/19 04:36:40;;;;;;;;;;;9.40;99.90;;;;;;4861076;29;19928;-87
2023/10/19 04:39:11;;;;;;;;;;;9.40;99.90;;;;;;4860109;29;19935;-88
2023/10/19 04:41:36;;;;;;;;;;;9.40;99.90;;;;;;4861062;29;19935;-86
2023/10/19 04:44:02;;;;;;;;;;;9.40;99.90;;;;;;4861003;29;20087;-85
2023/10/19 04:46:29;;;;;;;;;;;9.40;99.90;;;;;;4861480;29;19935;-86
2023/10/19 04:48:54;;;;;;;;;;;9.40;99.90;;;;;;4861459;29;19928;-88
2023/10/19 04:51:20;;;;;;;;;;;9.50;99.90;;;;;;4863075;29;20015;-86
2023/10/19 04:53:46;;;;;;;;;;;9.50;99.90;;;;;;4864386;29;19935;-86
2023/10/19 04:56:12;;;;;;;;;;;9.50;99.90;;;;;;4863162;29;19929;-89
2023/10/19 04:58:38;;;;;;;;;;;9.50;99.90;;;;;;4864789;29;20333;-85
2023/10/19 05:01:05;;;;;;;;;;;9.60;99.90;;;;;;4865061;29;19932;-85
2023/10/19 05:03:30;;;;;;;;;;;9.60;99.90;;;;;;4864835;29;19928;-85
2023/10/19 05:05:56;;;;;;;;;;;9.60;99.90;;;;;;4862985;29;20395;-86
2023/10/19 05:08:24;;;;;;;;;;;9.60;99.90;;;;;;4864009;29;19928;-86
2023/10/19 05:10:58;;;;;;;;;;;9.60;99.90;;;;;;4863794;29;20304;-85
2023/10/19 05:13:28;;;;;;;;;;;9.70;99.90;;;;;;4864107;29;19983;-87
2023/10/19 05:15:54;;;;;;;;;;;9.70;99.90;;;;;;4864742;29;20261;-86
2023/10/19 05:18:20;;;;;;;;;;;9.70;99.90;;;;;;4862941;29;19929;-87
2023/10/19 05:20:46;;;;;;;;;;;9.70;99.90;;;;;;4864605;29;19928;-85
2023/10/19 05:23:13;;;;;;;;;;;9.70;99.90;;;;;;4863198;29;19935;-85
2023/10/19 05:25:39;;;;;;;;;;;9.70;99.90;;;;;;4864600;29;19928;-85
2023/10/19 05:28:05;;;;;;;;;;;9.70;99.90;;;;;;4863807;29;20379;-86
2023/10/19 05:30:31;;;;;;;;;;;9.80;99.90;;;;;;4863779;29;19977;-86
2023/10/19 05:32:57;;;;;;;;;;;9.80;99.90;;;;;;4863744;29;19931;-87
2023/10/19 05:35:26;;;;;;;;;;;9.80;99.90;;;;;;4863734;29;20004;-86
2023/10/19 05:37:52;;;;;;;;;;;9.80;99.90;;;;;;4862519;29;19928;-85
2023/10/19 05:40:19;;;;;;;;;;;9.80;99.90;;;;;;4863613;29;19929;-85
2023/10/19 05:42:45;;;;;;;;;;;9.80;99.90;;;;;;4864113;29;19984;-85
2023/10/19 05:45:13;;;;;;;;;;;9.80;99.90;;;;;;4864119;29;20026;-85
2023/10/19 05:47:38;;;;;;;;;;;9.80;99.90;;;;;;4863466;29;19928;-91
2023/10/19 05:50:04;;;;;;;;;;;9.80;99.90;;;;;;4862895;29;19980;-85
2023/10/19 05:52:30;;;;;;;;;;;9.80;99.90;;;;;;4862242;29;20307;-87
2023/10/19 05:54:57;;;;;;;;;;;9.90;99.90;;;;;;4863277;29;19928;-88
2023/10/19 05:57:24;;;;;;;;;;;9.90;99.90;;;;;;4863751;29;19928;-86
2023/10/19 05:59:49;;;;;;;;;;;9.90;99.90;;;;;;4863282;29;19935;-86
2023/10/19 06:02:15;;;;;;;;;;;9.90;99.90;;;;;;4863199;29;19928;-85
2023/10/19 06:04:41;;;;;;;;;;;9.90;99.90;;;;;;4862864;29;19959;-86
2023/10/19 06:07:06;;;;;;;;;;;9.90;99.90;;;;;;4862819;29;19928;-85
2023/10/19 06:09:32;;;;;;;;;;;9.90;99.90;;;;;;4861558;29;21135;-86
2023/10/19 06:11:57;;;;;;;;;;;9.90;99.90;;;;;;4862901;29;19929;-83
2023/10/19 06:14:23;;;;;;;;;;;10.00;99.90;;;;;;4863034;29;19981;-83
2023/10/19 06:16:49;;;;;;;;;;;10.00;99.90;;;;;;4863019;29;19978;-84
2023/10/19 06:19:16;;;;;;;;;;;10.00;99.90;;;;;;4862038;29;19928;-85
2023/10/19 06:21:41;;;;;;;;;;;10.00;99.90;;;;;;4861827;29;20360;-84
2023/10/19 06:24:07;;;;;;;;;;;10.00;99.90;;;;;;4863478;29;20011;-86
2023/10/19 06:26:32;;;;;;;;;;;10.10;99.90;;;;;;4861963;29;20399;-84
2023/10/19 06:28:59;;;;;;;;;;;10.10;99.90;;;;;;4862108;29;20014;-86
2023/10/19 06:31:25;;;;;;;;;;;10.10;99.90;;;;;;4861637;29;20022;-85
2023/10/19 06:33:51;;;;;;;;;;;10.10;99.90;;;;;;4862587;29;20030;-84
2023/10/19 06:36:17;;;;;;;;;;;10.10;99.90;;;;;;4862452;29;20082;-85
2023/10/19 06:38:44;;;;;;;;;;;10.10;99.90;;;;;;4846404;29;20009;-86
2023/10/19 06:41:10;;;;;;;;;;;10.20;99.90;;;;;;4863037;29;19935;-85
2023/10/19 06:43:36;;;;;;;;;;;10.20;99.90;;;;;;4865603;29;19936;-84
2023/10/19 06:46:02;;;;;;;;;;;10.20;99.90;;;;;;4865051;29;19928;-83
2023/10/19 06:48:27;;;;;;;;;;;10.20;99.90;;;;;;4863627;29;19928;-92
2023/10/19 06:50:53;;;;;;;;;;;10.20;99.90;;;;;;4864930;29;19932;-86
2023/10/19 06:53:18;;;;;;;;;;;10.20;99.90;;;;;;4863208;29;20421;-85
2023/10/19 06:55:44;;;;;;;;;;;10.30;99.90;;;;;;4860994;29;20023;-85
2023/10/19 06:58:11;;;;;;;;;;;10.30;99.90;;;;;;4862151;29;19928;-86
2023/10/19 07:00:42;;;;;;;;;;;10.20;99.90;;;;;;4860898;29;19935;-84
2023/10/19 07:03:07;;;;;;;;;;;10.30;99.90;;;;;;4861533;29;20242;-83
2023/10/19 07:05:34;;;;;;;;;;;10.30;99.90;;;;;;4861813;29;20111;-89
2023/10/19 07:08:01;;;;;;;;;;;10.30;99.90;;;;;;4860747;29;19928;-92
2023/10/19 07:10:29;;;;;;;;;;;10.30;99.90;;;;;;4860594;29;19971;-85
2023/10/19 07:12:57;;;;;;;;;;;10.30;99.90;;;;;;4860115;29;20216;-83
2023/10/19 07:15:25;;;;;;;;;;;10.30;99.90;;;;;;4861871;29;19980;-83
2023/10/19 07:17:54;;;;;;;;;;;10.30;99.90;;;;;;4861656;29;20252;-84
2023/10/19 07:20:28;;;;;;;;;;;10.30;99.90;;;;;;4860840;29;19935;-93
2023/10/19 07:23:03;;;;;;;;;;;10.40;99.90;;;;;;4860798;29;20413;-84
2023/10/19 07:25:29;;;;;;;;;;;10.40;99.90;;;;;;4861745;29;19928;-84
2023/10/19 07:27:54;;;;;;;;;;;10.40;99.90;;;;;;4861702;29;19983;-84
2023/10/19 07:30:21;;;;;;;;;;;10.40;99.90;;;;;;4861570;29;20303;-85
2023/10/19 07:32:51;;;;;;;;;;;10.40;99.90;;;;;;4861878;29;19936;-83
2023/10/19 07:35:17;;;;;;;;;;;10.40;99.90;;;;;;4860771;29;19928;-84
2023/10/19 07:37:43;;;;;;;;;;;10.50;99.90;;;;;;4861650;29;20360;-83
2023/10/19 07:40:13;;;;;;;;;;;10.50;99.90;;;;;;4860809;29;19928;-86
2023/10/19 07:42:40;;;;;;;;;;;10.50;99.90;;;;;;4861478;29;20018;-88
2023/10/19 07:45:09;;;;;;;;;;;10.60;99.90;;;;;;4862609;29;20039;-95
2023/10/19 07:47:34;;;;;;;;;;;10.60;99.90;;;;;;4860774;29;19936;-85
2023/10/19 07:50:02;;;;;;;;;;;10.60;99.90;;;;;;4861593;29;19928;-85
2023/10/19 07:52:28;;;;;;;;;;;10.70;99.90;;;;;;4862138;29;19975;-86
2023/10/19 07:54:54;;;;;;;;;;;10.70;99.90;;;;;;4859935;29;20313;-90
2023/10/19 07:57:20;;;;;;;;;;;10.80;99.90;;;;;;4860239;29;19928;-85
2023/10/19 07:59:47;;;;;;;;;;;10.80;99.90;;;;;;4860294;29;19928;-85
2023/10/19 08:02:13;;;;;;;;;;;10.80;99.90;;;;;;4861165;29;19928;-85
2023/10/19 08:04:39;;;;;;;;;;;10.90;99.90;;;;;;4861277;29;19992;-86
2023/10/19 08:07:04;;;;;;;;;;;11.00;99.90;;;;;;4860109;29;19936;-86
2023/10/19 08:09:35;;;;;;;;;;;10.90;99.90;;;;;;4844506;29;19928;-88
2023/10/19 08:12:01;;;;;;;;;;;10.90;99.90;;;;;;4859915;29;19984;-86
2023/10/19 08:14:27;;;;;;;;;;;11.00;99.90;;;;;;4861170;29;19928;-87
2023/10/19 08:16:52;;;;;;;;;;;11.00;99.90;;;;;;4861265;29;19929;-85
2023/10/19 08:19:18;;;;;;;;;;;11.10;99.90;;;;;;4860175;29;20017;-86
2023/10/19 08:21:44;;;;;;;;;;;11.10;99.90;;;;;;4860495;29;20372;-85
2023/10/19 08:24:13;;;;;;;;;;;11.10;99.90;;;;;;4862508;29;20068;-86
2023/10/19 08:26:39;;;;;;;;;;;11.10;99.90;;;;;;4864920;29;19924;-85
2023/10/19 08:29:12;;;;;;;;;;;11.10;99.90;;;;;;4863837;29;19924;-86
2023/10/19 08:31:41;;;;;;;;;;;11.20;99.90;;;;;;4866116;29;19924;-85
2023/10/19 08:34:09;;;;;;;;;;;11.20;99.90;;;;;;4865348;29;19956;-85
2023/10/19 08:36:36;;;;;;;;;;;11.20;99.90;;;;;;4864770;29;20321;-85
2023/10/19 08:39:05;;;;;;;;;;;11.20;99.90;;;;;;4864831;29;19936;-85
2023/10/19 08:41:37;;;;;;;;;;;11.20;99.90;;;;;;4864771;29;19925;-87
2023/10/19 08:44:10;;;;;;;;;;;11.30;99.90;;;;;;4863923;29;20364;-87
2023/10/19 08:46:45;;;;;;;;;;;11.30;99.90;;;;;;4848143;29;19983;-88
2023/10/19 08:49:12;;;;;;;;;;;11.30;99.90;;;;;;4863974;29;20348;-88
2023/10/19 08:51:38;;;;;;;;;;;11.30;99.90;;;;;;4864576;29;19967;-89
2023/10/19 08:54:05;;;;;;;;;;;11.30;99.90;;;;;;4863428;29;20019;-86
2023/10/19 08:56:31;;;;;;;;;;;11.40;99.90;;;;;;4863913;29;20384;-86
2023/10/19 08:58:56;;;;;;;;;;;11.40;99.90;;;;;;4863516;29;19972;-86
2023/10/19 09:01:23;;;;;;;;;;;11.40;99.90;;;;;;4864106;29;19974;-87
2023/10/19 09:03:50;;;;;;;;;;;11.50;99.90;;;;;;4864295;29;19931;-86
2023/10/19 09:06:15;;;;;;;;;;;11.50;99.90;;;;;;4864308;29;19924;-85
2023/10/19 09:08:41;;;;;;;;;;;11.50;99.90;;;;;;4862999;29;19931;-86
2023/10/19 09:11:14;;;;;;;;;;;11.60;99.90;;;;;;4864384;29;20360;-88
2023/10/19 09:13:47;;;;;;;;;;;11.60;99.90;;;;;;4863601;29;19931;-86
2023/10/19 09:16:14;;;;;;;;;;;11.70;99.90;;;;;;4863252;29;19928;-86
2023/10/19 09:18:39;;;;;;;;;;;11.70;99.90;;;;;;4863146;29;19943;-86
2023/10/19 09:21:11;;;;;;;;;;;11.80;99.90;;;;;;4864285;29;20271;-86
2023/10/19 09:23:37;;;;;;;;;;;11.80;99.90;;;;;;4863938;29;20305;-86
2023/10/19 09:26:03;;;;;;;;;;;11.90;99.90;;;;;;4863093;29;20112;-86
2023/10/19 09:28:29;;;;;;;;;;;11.90;99.90;;;;;;4862784;29;19924;-86
2023/10/19 09:30:55;;;;;;;;;;;11.90;99.90;;;;;;4863787;29;19924;-88
2023/10/19 09:33:21;;;;;;;;;;;12.00;99.90;;;;;;4863879;29;19928;-86
2023/10/19 09:35:48;;;;;;;;;;;12.00;99.90;;;;;;4861895;29;20027;-86
2023/10/19 09:38:15;;;;;;;;;;;12.00;99.90;;;;;;4863921;29;19976;-86
2023/10/19 09:40:40;;;;;;;;;;;12.10;99.90;;;;;;4864188;29;20022;-86
2023/10/19 09:43:10;;;;;;;;;;;12.10;99.90;;;;;;4864464;29;19979;-86
2023/10/19 09:45:40;;;;;;;;;;;12.10;99.90;;;;;;4863820;29;19928;-86
2023/10/19 09:48:05;;;;;;;;;;;12.10;99.90;;;;;;4862526;29;19928;-87
2023/10/19 09:50:32;;;;;;;;;;;12.10;99.90;;;;;;4863726;29;19960;-86
2023/10/19 09:52:58;;;;;;;;;;;12.10;99.90;;;;;;4863473;29;19928;-86
2023/10/19 09:55:34;;;;;;;;;;;12.10;99.90;;;;;;4863633;29;19939;-86
2023/10/19 09:58:07;;;;;;;;;;;12.10;99.90;;;;;;4863281;29;20380;-86
2023/10/19 10:00:34;;;;;;;;;;;12.20;99.90;;;;;;4863957;29;19928;-84
2023/10/19 10:03:02;;;;;;;;;;;12.20;99.90;;;;;;4866247;29;19976;-86
2023/10/19 10:05:43;;;;;;;;;;;12.30;99.90;;;;;;4864385;29;19935;-86
2023/10/19 10:08:17;;;;;;;;;;;12.30;99.90;;;;;;4863159;29;19928;-86
2023/10/19 10:10:47;;;;;;;;;;;12.40;99.90;;;;;;4862050;29;19932;-87
2023/10/19 10:13:30;;;;;;;;;;;12.50;99.90;;;;;;4862405;29;19934;-86
2023/10/19 10:15:57;;;;;;;;;;;12.60;99.90;;;;;;4862283;29;19935;-86
2023/10/19 10:18:27;;;;;;;;;;;12.70;99.90;;;;;;4863235;29;19928;-86
2023/10/19 10:21:04;;;;;;;;;;;12.70;99.90;;;;;;4862431;29;19932;-86
2023/10/19 10:23:34;;;;;;;;;;;12.80;99.90;;;;;;4863160;29;19928;-86
2023/10/19 10:25:59;;;;;;;;;;;12.80;99.90;;;;;;4861947;29;20019;-87
2023/10/19 10:28:27;;;;;;;;;;;12.90;99.90;;;;;;4863544;29;20015;-86
2023/10/19 10:31:09;;;;;;;;;;;12.90;99.90;;;;;;4862120;29;20019;-86
2023/10/19 10:33:48;;;;;;;;;;;13.10;99.90;;;;;;4862949;29;19935;-86
2023/10/19 10:36:14;;;;;;;;;;;13.10;99.90;;;;;;4862158;29;19938;-86
2023/10/19 10:38:40;;;;;;;;;;;13.10;99.90;;;;;;4862214;29;19980;-86
2023/10/19 10:41:09;;;;;;;;;;;13.10;99.90;;;;;;4861535;29;20372;-86
2023/10/19 10:43:48;;;;;;;;;;;13.10;99.90;;;;;;4861810;29;19935;-87
2023/10/19 10:46:13;;;;;;;;;;;13.20;99.90;;;;;;4863554;29;20022;-86
2023/10/19 10:48:42;;;;;;;;;;;13.20;99.90;;;;;;4861590;29;20015;-87
2023/10/19 10:51:24;;;;;;;;;;;13.20;99.90;;;;;;4862651;29;20276;-86
2023/10/19 10:53:53;;;;;;;;;;;13.20;99.90;;;;;;4862607;29;20292;-85
2023/10/19 10:56:19;;;;;;;;;;;13.30;99.90;;;;;;4862565;29;19928;-85
2023/10/19 10:58:45;;;;;;;;;;;13.30;99.90;;;;;;4862579;29;19928;-86
2023/10/19 11:01:11;;;;;;;;;;;13.40;99.90;;;;;;4862393;29;19998;-85
2023/10/19 11:03:40;;;;;;;;;;;13.40;99.90;;;;;;4846139;29;19928;-86
2023/10/19 11:06:07;;;;;;;;;;;13.50;99.90;;;;;;4862335;29;20443;-86
2023/10/19 11:08:33;;;;;;;;;;;13.50;99.90;;;;;;4861304;29;19932;-86
2023/10/19 11:11:04;;;;;;;;;;;13.50;99.90;;;;;;4860916;29;19934;-85
2023/10/19 11:13:32;;;;;;;;;;;13.60;99.90;;;;;;4862438;29;20002;-88
2023/10/19 11:15:58;;;;;;;;;;;13.60;99.90;;;;;;4861983;29;19928;-87
2023/10/19 11:18:30;;;;;;;;;;;13.60;99.90;;;;;;4862701;29;20372;-87
2023/10/19 11:20:56;;;;;;;;;;;13.60;99.90;;;;;;4861924;29;20026;-86
2023/10/19 11:23:55;;;;;;;;;;;13.60;99.90;;;;;;4861913;29;19979;-86
2023/10/19 11:26:22;;;;;;;;;;;13.70;99.90;;;;;;4821344;29;20333;-86
2023/10/19 11:28:56;;;;;;;;;;;13.80;99.90;;;;;;4861863;29;19936;-86
2023/10/19 11:31:22;;;;;;;;;;;13.80;99.90;;;;;;4861842;29;19928;-87
2023/10/19 11:33:49;;;;;;;;;;;13.90;99.90;;;;;;4861894;29;19928;-86
2023/10/19 11:36:15;;;;;;;;;;;14.00;99.90;;;;;;4861287;29;19928;-87
2023/10/19 11:38:42;;;;;;;;;;;14.10;99.90;;;;;;4860935;29;19980;-87
2023/10/19 11:41:08;;;;;;;;;;;14.20;99.90;;;;;;4862547;29;19932;-87
2023/10/19 11:43:34;;;;;;;;;;;14.30;99.90;;;;;;4862391;29;20380;-85
2023/10/19 11:46:00;;;;;;;;;;;14.40;99.90;;;;;;4860625;29;20042;-85
2023/10/19 11:48:26;;;;;;;;;;;14.50;99.90;;;;;;4860713;29;20360;-86
2023/10/19 11:50:51;;;;;;;;;;;14.60;99.90;;;;;;4862451;29;19935;-85
2023/10/19 11:53:17;;;;;;;;;;;14.70;99.90;;;;;;4862421;29;20392;-87
2023/10/19 11:55:43;;;;;;;;;;;14.70;99.90;;;;;;4860447;29;20390;-86
2023/10/19 11:58:11;;;;;;;;;;;14.70;99.90;;;;;;4861263;29;19928;-86
2023/10/19 12:00:37;;;;;;;;;;;14.70;99.90;;;;;;4862038;29;19936;-86
2023/10/19 12:03:04;;;;;;;;;;;14.60;99.90;;;;;;4860565;29;20126;-85
2023/10/19 12:05:30;;;;;;;;;;;14.60;99.90;;;;;;4861599;29;20019;-87
2023/10/19 12:07:56;;;;;;;;;;;14.60;99.90;;;;;;4860339;29;19971;-86
2023/10/19 12:10:28;;;;;;;;;;;14.50;99.90;;;;;;4861430;29;19929;-85
2023/10/19 12:12:53;;;;;;;;;;;14.50;99.90;;;;;;4860771;29;19932;-86
2023/10/19 12:15:22;;;;;;;;;;;14.40;99.90;;;;;;4861508;29;20329;-85
2023/10/19 12:17:50;;;;;;;;;;;14.40;99.90;;;;;;4861281;29;19983;-85
2023/10/19 12:20:16;;;;;;;;;;;14.40;99.90;;;;;;4861445;29;19951;-85
2023/10/19 12:22:42;;;;;;;;;;;14.50;99.90;;;;;;4861796;29;20355;-86
2023/10/19 12:25:08;;;;;;;;;;;14.50;99.90;;;;;;4860466;29;19928;-85
2023/10/19 12:27:33;;;;;;;;;;;14.60;99.90;;;;;;4863839;29;19939;-86
2023/10/19 12:29:59;;;;;;;;;;;14.50;99.90;;;;;;4864090;29;19944;-85
2023/10/19 12:32:26;;;;;;;;;;;14.40;99.90;;;;;;4862777;29;19968;-85
2023/10/19 12:34:57;;;;;;;;;;;14.40;99.90;;;;;;4845382;29;19928;-88
2023/10/19 12:37:24;;;;;;;;;;;14.40;99.90;;;;;;4861940;29;19928;-85
2023/10/19 12:39:50;;;;;;;;;;;14.30;99.90;;;;;;4860539;29;19928;-86
2023/10/19 12:42:16;;;;;;;;;;;14.30;99.90;;;;;;4861266;29;19935;-85
2023/10/19 12:44:43;;;;;;;;;;;14.30;99.90;;;;;;4861769;29;20034;-86
2023/10/19 12:47:10;;;;;;;;;;;14.20;99.90;;;;;;4861379;29;19928;-85
2023/10/19 12:49:36;;;;;;;;;;;14.20;99.90;;;;;;4862408;29;19953;-87
2023/10/19 12:52:07;;;;;;;;;;;14.20;99.90;;;;;;4861498;29;19928;-85
2023/10/19 12:54:35;;;;;;;;;;;14.10;99.90;;;;;;4861094;29;19935;-85
2023/10/19 12:57:03;;;;;;;;;;;14.10;99.90;;;;;;4860397;29;19928;-87
2023/10/19 12:59:29;;;;;;;;;;;14.10;99.90;;;;;;4861641;29;19935;-85
2023/10/19 13:01:58;;;;;;;;;;;14.10;99.90;;;;;;4860270;29;19935;-85
2023/10/19 13:04:24;;;;;;;;;;;14.00;99.90;;;;;;4862007;29;19932;-86
2023/10/19 13:06:50;;;;;;;;;;;14.00;99.90;;;;;;4861570;29;19928;-85
2023/10/19 13:09:21;;;;;;;;;;;14.00;99.90;;;;;;4844180;29;19935;-85
2023/10/19 13:11:51;;;;;;;;;;;13.90;99.90;;;;;;4862165;29;19982;-86
2023/10/19 13:14:17;;;;;;;;;;;13.90;99.90;;;;;;4863010;29;19976;-86
2023/10/19 13:16:43;;;;;;;;;;;13.90;99.90;;;;;;4864344;29;20265;-86
2023/10/19 13:19:13;;;;;;;;;;;13.80;99.90;;;;;;4864060;29;19943;-87
2023/10/19 13:21:42;;;;;;;;;;;13.80;99.90;;;;;;4863193;29;19928;-86
2023/10/19 13:24:08;;;;;;;;;;;13.80;99.90;;;;;;4864068;29;19935;-88
2023/10/19 13:26:34;;;;;;;;;;;13.80;99.90;;;;;;4847806;29;19932;-85
2023/10/19 13:29:00;;;;;;;;;;;13.80;99.90;;;;;;4863877;29;19934;-87
2023/10/19 13:31:26;;;;;;;;;;;13.80;99.90;;;;;;4864493;29;19928;-86
2023/10/19 13:33:52;;;;;;;;;;;13.80;99.90;;;;;;4864053;29;19935;-86
2023/10/19 13:36:19;;;;;;;;;;;13.80;99.90;;;;;;4864449;29;19984;-86
2023/10/19 13:38:45;;;;;;;;;;;13.70;99.90;;;;;;4863160;29;19928;-85
2023/10/19 13:41:11;;;;;;;;;;;13.70;99.90;;;;;;4862811;29;19976;-86
2023/10/19 13:43:37;;;;;;;;;;;13.60;99.90;;;;;;4862657;29;19981;-86
2023/10/19 13:46:04;;;;;;;;;;;13.60;99.90;;;;;;4862890;29;19929;-85
2023/10/19 13:48:31;;;;;;;;;;;13.60;99.90;;;;;;4864181;29;19950;-85
2023/10/19 13:51:00;;;;;;;;;;;13.50;99.90;;;;;;4863700;29;19928;-85
2023/10/19 13:53:26;;;;;;;;;;;13.40;99.90;;;;;;4863603;29;19975;-85
2023/10/19 13:55:52;;;;;;;;;;;13.40;99.90;;;;;;4847565;29;19936;-87
2023/10/19 13:58:17;;;;;;;;;;;13.30;99.90;;;;;;4847262;29;19935;-87
2023/10/19 14:00:47;;;;;;;;;;;13.30;99.90;;;;;;4863362;29;19932;-85
2023/10/19 14:03:13;;;;;;;;;;;13.30;99.90;;;;;;4863264;29;20049;-83
2023/10/19 14:05:40;;;;;;;;;;;13.20;99.90;;;;;;4863850;29;20006;-86
2023/10/19 14:08:06;;;;;;;;;;;13.20;99.90;;;;;;4863363;29;20284;-86
2023/10/19 14:10:32;;;;;;;;;;;13.10;99.90;;;;;;4863266;29;19928;-88
2023/10/19 14:12:58;;;;;;;;;;;13.10;99.90;;;;;;4862304;29;19928;-86
2023/10/19 14:15:25;;;;;;;;;;;13.10;99.90;;;;;;4863177;29;19932;-86
2023/10/19 14:17:51;;;;;;;;;;;13.00;99.90;;;;;;4863202;29;19935;-86
2023/10/19 14:20:17;;;;;;;;;;;13.00;99.90;;;;;;4863213;29;19928;-87
2023/10/19 14:22:43;;;;;;;;;;;12.90;99.90;;;;;;4863456;29;19951;-89
2023/10/19 14:25:12;;;;;;;;;;;12.90;99.90;;;;;;4864037;29;20011;-85
2023/10/19 14:27:39;;;;;;;;;;;12.90;99.90;;;;;;4862695;29;19928;-85
2023/10/19 14:30:05;;;;;;;;;;;12.90;99.90;;;;;;4862033;29;19928;-85
2023/10/19 14:32:30;;;;;;;;;;;12.80;99.90;;;;;;4863544;29;19951;-84
2023/10/19 14:34:56;;;;;;;;;;;12.80;99.90;;;;;;4861992;29;20395;-88
2023/10/19 14:37:21;;;;;;;;;;;12.80;99.90;;;;;;4861579;29;20015;-86
2023/10/19 14:39:47;;;;;;;;;;;12.80;99.90;;;;;;4846464;29;19928;-86
2023/10/19 14:42:12;;;;;;;;;;;12.80;99.90;;;;;;4863574;29;20352;-85
2023/10/19 14:44:38;;;;;;;;;;;12.80;99.90;;;;;;4861485;29;19928;-86
2023/10/19 14:47:04;;;;;;;;;;;12.70;99.90;;;;;;4862960;29;19987;-86